createdAt,value
2022-08-26T00:01:44.146Z,99.90
2022-08-26T00:04:12.756Z,99.90
2022-08-26T00:06:42.611Z,99.90
2022-08-26T00:09:16.194Z,99.90
2022-08-26T00:11:45.578Z,99.90
2022-08-26T00:14:14.008Z,99.90
2022-08-26T00:16:47.738Z,99.90
2022-08-26T00:19:17.086Z,99.90
2022-08-26T00:21:44.501Z,99.90
2022-08-26T00:24:12.083Z,99.90
2022-08-26T00:26:39.562Z,99.90
2022-08-26T00:29:08.517Z,99.90
2022-08-26T00:31:36.588Z,99.90
2022-08-26T00:34:04.706Z,99.90
2022-08-26T00:36:32.179Z,99.90
2022-08-26T00:38:59.224Z,99.90
2022-08-26T00:41:26.425Z,99.90
2022-08-26T00:43:54.529Z,99.90
2022-08-26T00:46:29.931Z,99.90
2022-08-26T00:49:13.506Z,99.90
2022-08-26T00:51:47.728Z,99.90
2022-08-26T00:54:17.097Z,99.90
2022-08-26T00:57:04.996Z,99.90
2022-08-26T00:59:36.270Z,99.90
2022-08-26T01:02:06.485Z,99.90
2022-08-26T01:04:49.331Z,99.90
2022-08-26T01:07:22.639Z,99.90
2022-08-26T01:09:50.263Z,99.90
2022-08-26T01:12:22.187Z,99.90
2022-08-26T01:14:50.244Z,99.90
2022-08-26T01:17:18.486Z,99.90
2022-08-26T01:19:52.249Z,99.90
2022-08-26T01:22:48.306Z,99.90
2022-08-26T01:25:20.179Z,99.90
2022-08-26T01:27:47.083Z,99.90
2022-08-26T01:30:16.922Z,99.90
2022-08-26T01:32:44.591Z,99.90
2022-08-26T01:35:11.698Z,99.90
2022-08-26T01:37:40.457Z,99.90
2022-08-26T01:40:12.636Z,99.90
2022-08-26T01:42:41.322Z,99.90
2022-08-26T01:45:15.482Z,99.90
2022-08-26T01:47:43.202Z,99.90
2022-08-26T01:50:18.065Z,99.90
2022-08-26T01:52:57.658Z,99.90
2022-08-26T01:55:32.342Z,99.90
2022-08-26T01:58:02.220Z,99.90
2022-08-26T02:00:29.869Z,99.90
2022-08-26T02:03:17.141Z,99.90
2022-08-26T02:06:06.228Z,99.90
2022-08-26T02:08:43.706Z,99.90
2022-08-26T02:11:11.388Z,99.90
2022-08-26T02:13:51.051Z,99.90
2022-08-26T02:16:22.390Z,99.90
2022-08-26T02:18:52.851Z,99.90
2022-08-26T02:21:20.563Z,99.90
2022-08-26T02:23:47.721Z,99.90
2022-08-26T02:26:21.154Z,99.90
2022-08-26T02:28:57.424Z,99.90
2022-08-26T02:31:25.286Z,99.90
2022-08-26T02:33:52.213Z,99.90
2022-08-26T02:36:25.197Z,99.90
2022-08-26T02:38:55.752Z,99.90
2022-08-26T02:41:23.026Z,99.90
2022-08-26T02:43:50.031Z,99.90
2022-08-26T02:46:21.442Z,99.90
2022-08-26T02:48:55.276Z,99.90
2022-08-26T02:51:22.128Z,99.90
2022-08-26T02:53:49.958Z,99.90
2022-08-26T02:56:18.012Z,99.90
2022-08-26T02:58:45.247Z,99.90
2022-08-26T03:01:30.484Z,99.90
2022-08-26T03:03:59.207Z,99.90
2022-08-26T03:06:26.232Z,99.90
2022-08-26T03:08:53.525Z,99.90
2022-08-26T03:11:20.684Z,99.90
2022-08-26T03:13:49.424Z,99.90
2022-08-26T03:16:16.868Z,99.90
2022-08-26T03:18:44.316Z,99.90
2022-08-26T03:21:19.793Z,99.90
2022-08-26T03:23:47.504Z,99.90
2022-08-26T03:26:15.673Z,99.90
2022-08-26T03:29:01.384Z,99.90
2022-08-26T03:31:29.862Z,99.90
2022-08-26T03:33:59.533Z,99.90
2022-08-26T03:36:26.949Z,99.90
2022-08-26T03:38:53.906Z,99.90
2022-08-26T03:41:21.436Z,99.90
2022-08-26T03:43:50.807Z,99.90
2022-08-26T03:46:20.239Z,99.90
2022-08-26T03:48:48.222Z,99.90
2022-08-26T03:51:19.765Z,99.90
2022-08-26T03:53:48.324Z,99.90
2022-08-26T03:56:15.400Z,99.90
2022-08-26T03:58:44.431Z,99.90
2022-08-26T04:01:14.194Z,99.90
2022-08-26T04:04:00.398Z,99.90
2022-08-26T04:06:44.896Z,99.90
2022-08-26T04:09:20.861Z,99.90
2022-08-26T04:11:50.480Z,99.90
2022-08-26T04:14:20.817Z,99.90
2022-08-26T04:16:48.404Z,99.90
2022-08-26T04:19:16.741Z,99.90
2022-08-26T04:21:44.641Z,99.90
2022-08-26T04:24:13.775Z,99.90
2022-08-26T04:26:42.740Z,99.90
2022-08-26T04:29:13.891Z,99.90
2022-08-26T04:31:41.502Z,99.90
2022-08-26T04:34:08.803Z,99.90
2022-08-26T04:36:38.184Z,99.90
2022-08-26T04:39:05.581Z,99.90
2022-08-26T04:41:33.529Z,99.90
2022-08-26T04:44:01.971Z,99.90
2022-08-26T04:46:29.366Z,99.90
2022-08-26T04:48:56.498Z,99.90
2022-08-26T04:51:29.168Z,99.90
2022-08-26T04:53:57.511Z,99.90
2022-08-26T04:56:26.890Z,99.90
2022-08-26T04:58:53.945Z,99.90
2022-08-26T05:01:21.611Z,99.90
2022-08-26T05:03:51.193Z,99.90
2022-08-26T05:06:19.718Z,99.90
2022-08-26T05:08:47.008Z,99.90
2022-08-26T05:11:14.193Z,99.90
2022-08-26T05:13:41.884Z,99.90
2022-08-26T05:16:11.878Z,99.90
2022-08-26T05:18:39.637Z,99.90
2022-08-26T05:21:07.732Z,99.90
2022-08-26T05:23:37.629Z,99.90
2022-08-26T05:26:08.471Z,99.90
2022-08-26T05:28:36.642Z,99.90
2022-08-26T05:31:21.545Z,99.90
2022-08-26T05:33:48.478Z,99.90
2022-08-26T05:36:20.096Z,99.90
2022-08-26T05:38:49.190Z,99.90
2022-08-26T05:41:34.219Z,99.90
2022-08-26T05:44:06.059Z,99.90
2022-08-26T05:46:34.563Z,99.90
2022-08-26T05:49:02.133Z,99.90
2022-08-26T05:51:30.465Z,99.90
2022-08-26T05:53:58.782Z,99.90
2022-08-26T05:56:27.674Z,99.90
2022-08-26T05:58:58.356Z,99.90
2022-08-26T06:01:27.545Z,99.90
2022-08-26T06:03:57.255Z,99.90
2022-08-26T06:06:32.997Z,99.90
2022-08-26T06:09:03.925Z,99.90
2022-08-26T06:11:32.628Z,99.90
2022-08-26T06:14:03.949Z,99.90
2022-08-26T06:16:34.752Z,99.90
2022-08-26T06:19:03.664Z,99.90
2022-08-26T06:21:40.170Z,99.90
2022-08-26T06:24:29.396Z,99.90
2022-08-26T06:27:05.311Z,99.90
2022-08-26T06:29:34.067Z,99.90
2022-08-26T06:32:02.710Z,99.90
2022-08-26T06:34:30.667Z,99.90
2022-08-26T06:37:02.479Z,99.90
2022-08-26T06:39:31.087Z,99.90
2022-08-26T06:42:02.559Z,99.90
2022-08-26T06:44:30.501Z,99.90
2022-08-26T06:46:59.108Z,99.90
2022-08-26T06:49:27.487Z,99.90
2022-08-26T06:51:58.219Z,99.90
2022-08-26T06:54:25.938Z,99.90
2022-08-26T06:56:52.919Z,99.90
2022-08-26T06:59:21.234Z,99.90
2022-08-26T07:01:48.113Z,99.90
2022-08-26T07:04:21.823Z,99.90
2022-08-26T07:06:52.816Z,99.90
2022-08-26T07:09:22.100Z,99.90
2022-08-26T07:11:49.682Z,99.90
2022-08-26T07:14:21.273Z,99.90
2022-08-26T07:16:50.215Z,99.90
2022-08-26T07:19:27.510Z,99.90
2022-08-26T07:22:03.519Z,99.90
2022-08-26T07:24:35.048Z,99.90
2022-08-26T07:27:05.644Z,99.90
2022-08-26T07:29:33.385Z,99.90
2022-08-26T07:32:00.599Z,99.90
2022-08-26T07:34:27.782Z,99.90
2022-08-26T07:36:55.497Z,99.90
2022-08-26T07:39:23.411Z,99.90
2022-08-26T07:41:51.093Z,99.90
2022-08-26T07:44:18.504Z,99.90
2022-08-26T07:46:52.188Z,99.90
2022-08-26T07:49:22.108Z,99.90
2022-08-26T07:51:50.476Z,99.90
2022-08-26T07:54:18.646Z,99.90
2022-08-26T07:56:46.273Z,99.90
2022-08-26T07:59:15.103Z,99.90
2022-08-26T08:01:44.740Z,99.90
2022-08-26T08:04:17.332Z,99.90
2022-08-26T08:06:45.366Z,99.90
2022-08-26T08:09:16.044Z,99.90
2022-08-26T08:11:44.756Z,99.90
2022-08-26T08:14:12.230Z,99.90
2022-08-26T08:16:45.770Z,99.90
2022-08-26T08:19:14.512Z,99.90
2022-08-26T08:21:41.655Z,99.90
2022-08-26T08:24:09.685Z,99.90
2022-08-26T08:26:36.661Z,99.90
2022-08-26T08:29:04.301Z,99.90
2022-08-26T08:31:56.222Z,99.90
2022-08-26T08:34:21.555Z,99.90
2022-08-26T08:36:49.607Z,98.90
2022-08-26T08:39:17.768Z,99.90
2022-08-26T08:42:04.321Z,99.90
2022-08-26T08:44:31.623Z,97.20
2022-08-26T08:47:06.197Z,96.00
2022-08-26T08:49:34.612Z,95.90
2022-08-26T08:52:27.945Z,99.90
2022-08-26T08:54:56.290Z,99.90
2022-08-26T08:57:54.546Z,99.90
2022-08-26T09:00:30.369Z,99.90
2022-08-26T09:03:03.767Z,99.90
2022-08-26T09:05:40.509Z,99.90
2022-08-26T09:08:23.251Z,99.90
2022-08-26T09:10:58.049Z,99.90
2022-08-26T09:13:27.131Z,99.90
2022-08-26T09:15:54.272Z,99.90
2022-08-26T09:19:02.891Z,99.90
2022-08-26T09:21:31.499Z,99.90
2022-08-26T09:23:58.678Z,99.60
2022-08-26T09:26:41.060Z,96.70
2022-08-26T09:31:48.143Z,89.30
2022-08-26T09:34:26.874Z,69.80
2022-08-26T09:36:59.154Z,65.10
2022-08-26T09:39:29.934Z,62.10
2022-08-26T09:42:10.550Z,63.00
2022-08-26T09:45:03.613Z,53.10
2022-08-26T09:47:40.083Z,16.00
2022-08-26T09:50:53.851Z,7.20
2022-08-26T09:53:37.159Z,1.00
2022-08-26T09:56:15.856Z,1.00
2022-08-26T09:58:47.269Z,1.00
2022-08-26T10:01:35.360Z,1.00
2022-08-26T10:04:10.893Z,1.00
2022-08-26T10:06:54.875Z,1.00
2022-08-26T10:09:23.945Z,1.00
2022-08-26T10:11:58.761Z,1.00
2022-08-26T10:14:32.740Z,1.00
2022-08-26T10:17:21.010Z,1.00
2022-08-26T10:19:57.860Z,1.00
2022-08-26T10:22:36.707Z,1.00
2022-08-26T10:25:08.146Z,1.00
2022-08-26T10:27:37.802Z,1.00
2022-08-26T10:30:12.539Z,99.90
2022-08-26T10:32:45.249Z,97.90
2022-08-26T10:35:15.013Z,47.60
2022-08-26T10:38:04.763Z,99.90
2022-08-26T10:41:10.606Z,99.90
2022-08-26T10:43:52.661Z,73.70
2022-08-26T10:46:27.198Z,61.80
2022-08-26T10:49:08.265Z,99.90
2022-08-26T10:51:42.346Z,99.90
2022-08-26T10:54:31.474Z,99.90
2022-08-26T10:57:28.190Z,99.90
2022-08-26T11:00:34.136Z,99.90
2022-08-26T11:03:21.736Z,99.90
2022-08-26T11:06:16.466Z,99.90
2022-08-26T11:09:05.064Z,99.90
2022-08-26T11:11:41.083Z,99.90
2022-08-26T11:14:09.138Z,98.80
2022-08-26T11:16:48.727Z,98.50
2022-08-26T11:19:45.662Z,97.80
2022-08-26T11:22:38.149Z,97.70
2022-08-26T11:25:19.805Z,98.00
2022-08-26T11:27:52.532Z,99.90
2022-08-26T11:30:20.327Z,99.60
2022-08-26T11:32:56.935Z,99.90
2022-08-26T11:35:24.594Z,98.90
2022-08-26T11:37:57.460Z,99.60
2022-08-26T11:40:38.681Z,98.90
2022-08-26T11:43:10.660Z,95.20
2022-08-26T11:45:44.007Z,95.70
2022-08-26T11:48:20.053Z,96.00
2022-08-26T11:51:01.245Z,94.60
2022-08-26T11:53:32.741Z,96.70
2022-08-26T11:56:04.407Z,96.40
2022-08-26T11:58:32.104Z,96.40
2022-08-26T12:01:01.095Z,95.80
2022-08-26T12:03:49.545Z,95.40
2022-08-26T12:06:31.011Z,94.30
2022-08-26T12:09:01.374Z,94.40
2022-08-26T12:11:31.312Z,94.80
2022-08-26T12:14:01.519Z,95.70
2022-08-26T12:16:32.537Z,96.10
2022-08-26T12:19:00.074Z,95.80
2022-08-26T12:21:34.562Z,94.80
2022-08-26T12:24:04.341Z,94.00
2022-08-26T12:26:34.851Z,95.30
2022-08-26T12:29:09.974Z,93.00
2022-08-26T12:31:46.981Z,92.20
2022-08-26T12:34:17.983Z,89.30
2022-08-26T12:36:53.096Z,89.60
2022-08-26T12:39:28.073Z,90.30
2022-08-26T12:42:00.607Z,90.20
2022-08-26T12:44:53.793Z,89.40
2022-08-26T12:47:39.090Z,86.60
2022-08-26T12:50:33.947Z,85.50
2022-08-26T12:53:15.528Z,84.40
2022-08-26T12:55:45.644Z,80.40
2022-08-26T12:58:12.605Z,80.90
2022-08-26T13:00:41.933Z,75.80
2022-08-26T13:03:28.819Z,91.60
2022-08-26T13:06:15.903Z,95.50
2022-08-26T13:08:51.879Z,99.90
2022-08-26T13:11:25.576Z,99.90
2022-08-26T13:13:57.130Z,99.90
2022-08-26T13:16:24.969Z,99.90
2022-08-26T13:18:56.740Z,99.90
2022-08-26T13:21:32.019Z,99.90
2022-08-26T13:24:12.968Z,99.90
2022-08-26T13:26:42.883Z,99.90
2022-08-26T13:29:10.736Z,99.90
2022-08-26T13:31:40.613Z,99.90
2022-08-26T13:34:09.981Z,99.90
2022-08-26T13:36:37.136Z,99.90
2022-08-26T13:39:05.404Z,99.90
2022-08-26T13:41:32.691Z,99.90
2022-08-26T13:44:00.326Z,99.90
2022-08-26T13:46:28.366Z,99.90
2022-08-26T13:48:56.382Z,99.90
2022-08-26T13:51:24.024Z,99.90
2022-08-26T13:53:51.682Z,99.90
2022-08-26T13:56:19.347Z,99.90
2022-08-26T13:58:47.140Z,99.90
2022-08-26T14:01:15.793Z,99.90
2022-08-26T14:03:43.079Z,99.90
2022-08-26T14:06:10.424Z,99.90
2022-08-26T14:08:38.996Z,99.90
2022-08-26T14:11:06.292Z,99.90
2022-08-26T14:13:33.605Z,99.90
2022-08-26T14:16:02.275Z,99.90
2022-08-26T14:18:33.374Z,99.90
2022-08-26T14:21:00.766Z,99.90
2022-08-26T14:23:27.930Z,99.90
2022-08-26T14:25:54.996Z,99.90
2022-08-26T14:28:21.948Z,99.90
2022-08-26T14:30:54.167Z,99.90
2022-08-26T14:33:25.886Z,99.90
2022-08-26T14:35:53.348Z,99.90
2022-08-26T14:38:20.223Z,99.90
2022-08-26T14:40:47.214Z,99.90
2022-08-26T14:43:15.482Z,99.90
2022-08-26T14:45:44.204Z,99.90
2022-08-26T14:48:11.285Z,99.90
2022-08-26T14:50:38.477Z,99.90
2022-08-26T14:53:24.001Z,99.90
2022-08-26T14:55:50.964Z,99.90
2022-08-26T14:58:17.872Z,99.90
2022-08-26T15:00:44.812Z,99.90
2022-08-26T15:03:11.897Z,99.90
2022-08-26T15:05:39.984Z,99.90
2022-08-26T15:08:10.677Z,99.90
2022-08-26T15:10:38.707Z,99.90
2022-08-26T15:13:05.696Z,96.30
2022-08-26T15:15:32.684Z,97.40
2022-08-26T15:17:59.666Z,95.60
2022-08-26T15:20:26.595Z,95.50
2022-08-26T15:22:53.631Z,95.10
2022-08-26T15:25:20.641Z,94.10
2022-08-26T15:27:47.526Z,93.80
2022-08-26T15:30:16.328Z,94.80
2022-08-26T15:32:43.266Z,94.50
2022-08-26T15:35:10.267Z,95.20
2022-08-26T15:37:37.268Z,95.00
2022-08-26T15:40:05.181Z,95.30
2022-08-26T15:42:32.218Z,95.50
2022-08-26T15:44:59.120Z,96.10
2022-08-26T15:47:26.108Z,96.70
2022-08-26T15:49:55.521Z,97.70
2022-08-26T15:52:22.421Z,97.40
2022-08-26T15:54:49.330Z,96.60
2022-08-26T15:57:19.637Z,96.40
2022-08-26T15:59:46.702Z,96.00
2022-08-26T16:02:13.735Z,95.90
2022-08-26T16:04:40.630Z,95.60
2022-08-26T16:07:07.639Z,95.90
2022-08-26T16:09:34.690Z,95.60
2022-08-26T16:12:01.706Z,96.00
2022-08-26T16:14:28.607Z,96.70
2022-08-26T16:16:56.638Z,96.70
2022-08-26T16:19:23.556Z,97.10
2022-08-26T16:21:51.625Z,98.50
2022-08-26T16:24:24.908Z,99.90
2022-08-26T16:26:54.640Z,99.90
2022-08-26T16:29:21.515Z,99.90
2022-08-26T16:31:50.757Z,99.90
2022-08-26T16:34:17.614Z,99.90
2022-08-26T16:36:44.523Z,99.90
2022-08-26T16:39:11.801Z,99.90
2022-08-26T16:41:39.056Z,99.90
2022-08-26T16:44:07.896Z,99.90
2022-08-26T16:46:35.482Z,99.90
2022-08-26T16:49:04.798Z,99.90
2022-08-26T16:51:37.719Z,99.90
2022-08-26T16:54:07.032Z,99.90
2022-08-26T16:56:34.662Z,99.90
2022-08-26T16:59:04.302Z,99.90
2022-08-26T17:01:31.353Z,99.90
2022-08-26T17:03:58.452Z,99.90
2022-08-26T17:06:25.349Z,99.90
2022-08-26T17:08:52.617Z,99.90
2022-08-26T17:11:19.830Z,99.90
2022-08-26T17:13:46.807Z,99.90
2022-08-26T17:16:15.002Z,99.90
2022-08-26T17:18:42.161Z,99.90
2022-08-26T17:21:11.779Z,99.90
2022-08-26T17:23:41.050Z,99.90
2022-08-26T17:26:08.196Z,99.90
2022-08-26T17:28:35.721Z,99.90
2022-08-26T17:31:03.406Z,99.90
2022-08-26T17:33:30.550Z,99.90
2022-08-26T17:35:58.740Z,99.90
2022-08-26T17:38:26.121Z,99.90
2022-08-26T17:40:53.056Z,99.90
2022-08-26T17:43:19.959Z,99.90
2022-08-26T17:45:47.206Z,99.90
2022-08-26T17:48:14.246Z,99.90
2022-08-26T17:50:42.554Z,99.90
2022-08-26T17:53:12.700Z,99.90
2022-08-26T17:55:46.740Z,99.90
2022-08-26T17:58:14.664Z,99.90
2022-08-26T18:00:48.179Z,99.90
2022-08-26T18:03:15.570Z,99.90
2022-08-26T18:05:42.923Z,99.90
2022-08-26T18:08:10.246Z,99.90
2022-08-26T18:10:37.436Z,99.90
2022-08-26T18:13:04.392Z,99.90
2022-08-26T18:15:31.345Z,99.90
2022-08-26T18:17:58.250Z,99.90
2022-08-26T18:20:25.127Z,99.90
2022-08-26T18:22:54.778Z,99.90
2022-08-26T18:25:21.734Z,99.90
2022-08-26T18:27:48.716Z,99.90
2022-08-26T18:30:20.742Z,99.90
2022-08-26T18:32:52.031Z,99.90
2022-08-26T18:35:21.415Z,99.90
2022-08-26T18:37:48.383Z,99.90
2022-08-26T18:40:16.144Z,99.90
2022-08-26T18:42:43.133Z,99.90
2022-08-26T18:45:10.897Z,99.90
2022-08-26T18:47:43.038Z,99.90
2022-08-26T18:50:11.200Z,99.90
2022-08-26T18:52:39.453Z,99.90
2022-08-26T18:55:06.722Z,99.90
2022-08-26T18:57:33.733Z,99.90
2022-08-26T19:00:01.011Z,99.90
2022-08-26T19:02:28.107Z,99.90
2022-08-26T19:04:57.538Z,99.90
2022-08-26T19:07:24.583Z,99.90
2022-08-26T19:09:53.923Z,99.90
2022-08-26T19:12:21.357Z,99.90
2022-08-26T19:14:48.256Z,99.90
2022-08-26T19:17:15.156Z,99.90
2022-08-26T19:19:42.260Z,99.90
2022-08-26T19:22:09.722Z,99.90
2022-08-26T19:24:36.538Z,99.90
2022-08-26T19:27:04.021Z,99.90
2022-08-26T19:29:33.970Z,99.90
2022-08-26T19:32:01.995Z,99.90
2022-08-26T19:34:29.624Z,99.90
2022-08-26T19:36:58.418Z,99.90
2022-08-26T19:39:26.152Z,99.90
2022-08-26T19:41:53.675Z,99.90
2022-08-26T19:44:40.943Z,99.90
2022-08-26T19:47:09.749Z,99.90
2022-08-26T19:49:37.543Z,99.90
2022-08-26T19:52:06.133Z,99.90
2022-08-26T19:54:34.204Z,99.90
2022-08-26T19:57:01.154Z,99.90
2022-08-26T19:59:29.101Z,99.90
2022-08-26T20:02:01.275Z,99.90
2022-08-26T20:04:30.151Z,99.90
2022-08-26T20:07:00.233Z,99.90
2022-08-26T20:09:28.642Z,99.90
2022-08-26T20:11:56.785Z,99.90
2022-08-26T20:14:24.497Z,99.90
2022-08-26T20:16:51.437Z,99.90
2022-08-26T20:19:37.626Z,99.90
2022-08-26T20:22:05.061Z,99.90
2022-08-26T20:24:32.757Z,99.90
2022-08-26T20:27:01.533Z,99.90
2022-08-26T20:29:31.465Z,99.90
2022-08-26T20:31:58.915Z,99.90
2022-08-26T20:34:26.462Z,99.90
2022-08-26T20:36:53.374Z,99.90
2022-08-26T20:39:21.249Z,99.90
2022-08-26T20:41:48.537Z,99.90
2022-08-26T20:44:16.822Z,99.90
2022-08-26T20:46:44.050Z,99.90
2022-08-26T20:49:11.237Z,99.90
2022-08-26T20:51:38.582Z,99.90
2022-08-26T20:54:07.120Z,99.90
2022-08-26T20:56:34.170Z,99.90
2022-08-26T20:59:02.307Z,99.90
2022-08-26T21:01:34.633Z,99.90
2022-08-26T21:04:07.617Z,99.90
2022-08-26T21:06:35.478Z,99.90
2022-08-26T21:09:05.252Z,99.90
2022-08-26T21:11:33.311Z,99.90
2022-08-26T21:14:06.679Z,99.90
2022-08-26T21:16:44.094Z,99.90
2022-08-26T21:19:13.297Z,99.90
2022-08-26T21:21:41.004Z,99.90
2022-08-26T21:24:08.492Z,99.90
2022-08-26T21:26:35.558Z,99.90
2022-08-26T21:29:06.779Z,99.90
2022-08-26T21:31:35.169Z,99.90
2022-08-26T21:34:02.137Z,99.90
2022-08-26T21:36:29.226Z,99.90
2022-08-26T21:39:00.394Z,99.90
2022-08-26T21:41:28.218Z,99.90
2022-08-26T21:43:59.284Z,99.90
2022-08-26T21:46:29.208Z,99.90
2022-08-26T21:49:02.988Z,99.90
2022-08-26T21:51:33.076Z,99.90
2022-08-26T21:54:01.297Z,99.90
2022-08-26T21:56:31.715Z,99.90
2022-08-26T21:59:00.028Z,99.90
2022-08-26T22:01:32.042Z,99.90
2022-08-26T22:03:59.220Z,99.90
2022-08-26T22:06:27.831Z,99.90
2022-08-26T22:08:55.438Z,99.90
2022-08-26T22:11:22.670Z,99.90
2022-08-26T22:13:50.254Z,99.90
2022-08-26T22:16:17.855Z,99.90
2022-08-26T22:18:45.551Z,99.90
2022-08-26T22:21:19.846Z,99.90
2022-08-26T22:23:47.565Z,99.90
2022-08-26T22:26:25.399Z,99.90
2022-08-26T22:28:58.623Z,99.90
2022-08-26T22:31:37.692Z,99.90
2022-08-26T22:34:11.369Z,99.90
2022-08-26T22:36:43.955Z,99.90
2022-08-26T22:39:15.795Z,99.90
2022-08-26T22:41:44.266Z,99.90
2022-08-26T22:44:12.183Z,99.90
2022-08-26T22:46:40.027Z,99.90
2022-08-26T22:49:09.787Z,99.90
2022-08-26T22:51:36.801Z,99.90
2022-08-26T22:54:04.004Z,99.90
2022-08-26T22:56:30.868Z,99.90
2022-08-26T22:58:57.905Z,99.90
2022-08-26T23:01:24.887Z,99.90
2022-08-26T23:03:51.829Z,99.90
2022-08-26T23:06:18.743Z,99.90
2022-08-26T23:08:47.195Z,99.90
2022-08-26T23:11:15.076Z,99.90
2022-08-26T23:13:42.441Z,99.90
2022-08-26T23:16:11.759Z,99.90
2022-08-26T23:18:40.416Z,99.90
2022-08-26T23:21:07.715Z,99.90
2022-08-26T23:23:35.462Z,99.90
2022-08-26T23:26:05.903Z,99.90
2022-08-26T23:28:33.967Z,99.90
2022-08-26T23:31:01.051Z,99.90
2022-08-26T23:33:48.098Z,99.90
2022-08-26T23:36:18.162Z,99.90
2022-08-26T23:38:52.438Z,99.90
2022-08-26T23:41:24.261Z,99.90
2022-08-26T23:43:51.724Z,99.90
2022-08-26T23:46:19.756Z,99.90
2022-08-26T23:48:47.685Z,99.90
2022-08-26T23:51:33.612Z,99.90
2022-08-26T23:54:00.525Z,99.90
2022-08-26T23:56:29.382Z,99.90
2022-08-26T23:58:56.560Z,99.90
